sensor_id;sensor_type;location;lat;lon;timestamp;P1;durP1;ratioP1;P2;durP2;ratioP2
72639;SDS011;60683;51.730;8.762;2023-02-21T00:00:16;32.63;;;14.27;;
72639;SDS011;60683;51.730;8.762;2023-02-21T00:03:20;27.70;;;11.43;;
72639;SDS011;60683;51.730;8.762;2023-02-21T00:06:06;35.17;;;13.68;;
72639;SDS011;60683;51.730;8.762;2023-02-21T00:08:51;31.05;;;13.07;;
72639;SDS011;60683;51.730;8.762;2023-02-21T00:11:39;32.65;;;13.07;;
72639;SDS011;60683;51.730;8.762;2023-02-21T00:14:25;34.75;;;14.35;;
72639;SDS011;60683;51.730;8.762;2023-02-21T00:17:10;27.10;;;12.13;;
72639;SDS011;60683;51.730;8.762;2023-02-21T00:19:56;32.53;;;12.85;;
72639;SDS011;60683;51.730;8.762;2023-02-21T00:22:40;31.20;;;12.93;;
72639;SDS011;60683;51.730;8.762;2023-02-21T00:25:26;37.40;;;16.05;;
72639;SDS011;60683;51.730;8.762;2023-02-21T00:28:11;39.30;;;17.08;;
72639;SDS011;60683;51.730;8.762;2023-02-21T00:30:56;33.10;;;13.55;;
72639;SDS011;60683;51.730;8.762;2023-02-21T00:33:41;32.50;;;12.93;;
72639;SDS011;60683;51.730;8.762;2023-02-21T00:36:28;31.02;;;13.25;;
72639;SDS011;60683;51.730;8.762;2023-02-21T00:39:12;34.15;;;15.48;;
72639;SDS011;60683;51.730;8.762;2023-02-21T00:41:57;26.75;;;13.25;;
72639;SDS011;60683;51.730;8.762;2023-02-21T00:44:42;36.53;;;14.70;;
72639;SDS011;60683;51.730;8.762;2023-02-21T00:47:27;24.02;;;10.60;;
72639;SDS011;60683;51.730;8.762;2023-02-21T00:50:12;34.75;;;14.85;;
72639;SDS011;60683;51.730;8.762;2023-02-21T00:52:58;32.67;;;13.35;;
72639;SDS011;60683;51.730;8.762;2023-02-21T00:55:43;30.70;;;14.40;;
72639;SDS011;60683;51.730;8.762;2023-02-21T00:58:29;29.25;;;13.68;;
72639;SDS011;60683;51.730;8.762;2023-02-21T01:01:14;24.98;;;11.55;;
72639;SDS011;60683;51.730;8.762;2023-02-21T01:03:59;34.78;;;15.75;;
72639;SDS011;60683;51.730;8.762;2023-02-21T01:06:44;22.63;;;12.05;;
72639;SDS011;60683;51.730;8.762;2023-02-21T01:09:30;33.00;;;13.38;;
72639;SDS011;60683;51.730;8.762;2023-02-21T01:12:15;24.50;;;10.40;;
72639;SDS011;60683;51.730;8.762;2023-02-21T01:15:00;38.70;;;14.90;;
72639;SDS011;60683;51.730;8.762;2023-02-21T01:17:45;35.58;;;13.80;;
72639;SDS011;60683;51.730;8.762;2023-02-21T01:20:30;22.80;;;9.77;;
72639;SDS011;60683;51.730;8.762;2023-02-21T01:23:15;25.70;;;12.15;;
72639;SDS011;60683;51.730;8.762;2023-02-21T01:26:02;34.67;;;14.10;;
72639;SDS011;60683;51.730;8.762;2023-02-21T01:28:48;39.17;;;15.70;;
72639;SDS011;60683;51.730;8.762;2023-02-21T01:31:32;32.38;;;14.77;;
72639;SDS011;60683;51.730;8.762;2023-02-21T01:34:17;24.52;;;12.18;;
72639;SDS011;60683;51.730;8.762;2023-02-21T01:37:02;34.45;;;13.60;;
72639;SDS011;60683;51.730;8.762;2023-02-21T01:39:47;34.80;;;14.52;;
72639;SDS011;60683;51.730;8.762;2023-02-21T01:42:34;35.25;;;14.98;;
72639;SDS011;60683;51.730;8.762;2023-02-21T01:45:37;32.10;;;14.85;;
72639;SDS011;60683;51.730;8.762;2023-02-21T01:48:25;34.65;;;15.23;;
72639;SDS011;60683;51.730;8.762;2023-02-21T01:51:11;34.10;;;13.75;;
72639;SDS011;60683;51.730;8.762;2023-02-21T01:53:57;30.90;;;14.85;;
72639;SDS011;60683;51.730;8.762;2023-02-21T01:56:42;31.70;;;14.32;;
72639;SDS011;60683;51.730;8.762;2023-02-21T01:59:29;27.27;;;13.63;;
72639;SDS011;60683;51.730;8.762;2023-02-21T02:02:15;21.48;;;8.88;;
72639;SDS011;60683;51.730;8.762;2023-02-21T02:05:02;35.75;;;14.65;;
72639;SDS011;60683;51.730;8.762;2023-02-21T02:07:47;26.52;;;14.18;;
72639;SDS011;60683;51.730;8.762;2023-02-21T02:10:32;35.15;;;13.13;;
72639;SDS011;60683;51.730;8.762;2023-02-21T02:13:23;38.97;;;16.45;;
72639;SDS011;60683;51.730;8.762;2023-02-21T02:15:58;38.30;;;16.23;;
72639;SDS011;60683;51.730;8.762;2023-02-21T02:24:43;33.55;;;14.32;;
72639;SDS011;60683;51.730;8.762;2023-02-21T02:27:27;36.83;;;15.68;;
72639;SDS011;60683;51.730;8.762;2023-02-21T02:36:23;38.08;;;14.23;;
72639;SDS011;60683;51.730;8.762;2023-02-21T02:38:56;35.47;;;14.20;;
72639;SDS011;60683;51.730;8.762;2023-02-21T02:41:31;40.10;;;15.77;;
72639;SDS011;60683;51.730;8.762;2023-02-21T02:44:03;41.35;;;15.15;;
72639;SDS011;60683;51.730;8.762;2023-02-21T02:49:01;38.42;;;15.57;;
72639;SDS011;60683;51.730;8.762;2023-02-21T02:51:32;33.70;;;13.25;;
72639;SDS011;60683;51.730;8.762;2023-02-21T02:56:28;28.77;;;12.18;;
72639;SDS011;60683;51.730;8.762;2023-02-21T02:58:59;37.90;;;14.95;;
72639;SDS011;60683;51.730;8.762;2023-02-21T03:04:19;28.00;;;11.43;;
72639;SDS011;60683;51.730;8.762;2023-02-21T03:07:02;40.90;;;14.63;;
72639;SDS011;60683;51.730;8.762;2023-02-21T03:09:36;40.30;;;16.70;;
72639;SDS011;60683;51.730;8.762;2023-02-21T03:12:17;41.67;;;15.50;;
72639;SDS011;60683;51.730;8.762;2023-02-21T03:14:49;43.20;;;14.95;;
72639;SDS011;60683;51.730;8.762;2023-02-21T03:17:19;40.25;;;15.35;;
72639;SDS011;60683;51.730;8.762;2023-02-21T03:19:50;44.72;;;16.38;;
72639;SDS011;60683;51.730;8.762;2023-02-21T03:22:24;43.33;;;16.20;;
72639;SDS011;60683;51.730;8.762;2023-02-21T03:24:53;44.13;;;15.80;;
72639;SDS011;60683;51.730;8.762;2023-02-21T03:27:22;33.65;;;13.55;;
72639;SDS011;60683;51.730;8.762;2023-02-21T03:29:50;50.72;;;16.38;;
72639;SDS011;60683;51.730;8.762;2023-02-21T03:32:19;44.58;;;18.50;;
72639;SDS011;60683;51.730;8.762;2023-02-21T03:34:47;54.80;;;19.15;;
72639;SDS011;60683;51.730;8.762;2023-02-21T03:37:18;48.15;;;16.08;;
72639;SDS011;60683;51.730;8.762;2023-02-21T03:39:49;38.72;;;15.30;;
72639;SDS011;60683;51.730;8.762;2023-02-21T03:42:16;45.72;;;15.68;;
72639;SDS011;60683;51.730;8.762;2023-02-21T03:44:44;32.13;;;11.77;;
72639;SDS011;60683;51.730;8.762;2023-02-21T03:47:12;32.10;;;12.75;;
72639;SDS011;60683;51.730;8.762;2023-02-21T03:49:39;44.70;;;16.08;;
72639;SDS011;60683;51.730;8.762;2023-02-21T03:52:07;41.75;;;15.85;;
72639;SDS011;60683;51.730;8.762;2023-02-21T03:54:39;31.80;;;13.00;;
72639;SDS011;60683;51.730;8.762;2023-02-21T03:57:06;42.05;;;16.35;;
72639;SDS011;60683;51.730;8.762;2023-02-21T03:59:34;27.40;;;12.38;;
72639;SDS011;60683;51.730;8.762;2023-02-21T04:02:02;46.47;;;16.63;;
72639;SDS011;60683;51.730;8.762;2023-02-21T04:04:30;32.13;;;14.32;;
72639;SDS011;60683;51.730;8.762;2023-02-21T04:06:57;45.78;;;16.73;;
72639;SDS011;60683;51.730;8.762;2023-02-21T04:09:25;56.63;;;18.55;;
72639;SDS011;60683;51.730;8.762;2023-02-21T04:11:54;49.15;;;17.35;;
72639;SDS011;60683;51.730;8.762;2023-02-21T04:14:22;47.85;;;17.35;;
72639;SDS011;60683;51.730;8.762;2023-02-21T04:16:50;52.88;;;18.23;;
72639;SDS011;60683;51.730;8.762;2023-02-21T04:19:18;35.92;;;15.30;;
72639;SDS011;60683;51.730;8.762;2023-02-21T04:21:45;31.05;;;13.75;;
72639;SDS011;60683;51.730;8.762;2023-02-21T04:24:13;30.35;;;13.70;;
72639;SDS011;60683;51.730;8.762;2023-02-21T04:26:40;38.65;;;14.50;;
72639;SDS011;60683;51.730;8.762;2023-02-21T04:29:09;62.00;;;17.65;;
72639;SDS011;60683;51.730;8.762;2023-02-21T04:31:37;53.70;;;18.08;;
72639;SDS011;60683;51.730;8.762;2023-02-21T04:34:05;44.42;;;16.10;;
72639;SDS011;60683;51.730;8.762;2023-02-21T04:36:32;37.40;;;13.63;;
72639;SDS011;60683;51.730;8.762;2023-02-21T04:39:02;40.97;;;14.38;;
72639;SDS011;60683;51.730;8.762;2023-02-21T04:41:30;52.80;;;17.38;;
72639;SDS011;60683;51.730;8.762;2023-02-21T04:43:58;34.03;;;13.10;;
72639;SDS011;60683;51.730;8.762;2023-02-21T04:46:27;44.00;;;19.58;;
72639;SDS011;60683;51.730;8.762;2023-02-21T04:48:55;49.35;;;16.17;;
72639;SDS011;60683;51.730;8.762;2023-02-21T04:51:23;31.30;;;11.25;;
72639;SDS011;60683;51.730;8.762;2023-02-21T04:53:52;41.28;;;15.90;;
72639;SDS011;60683;51.730;8.762;2023-02-21T04:56:21;42.13;;;16.25;;
72639;SDS011;60683;51.730;8.762;2023-02-21T04:58:49;41.90;;;15.07;;
72639;SDS011;60683;51.730;8.762;2023-02-21T05:01:17;51.78;;;16.95;;
72639;SDS011;60683;51.730;8.762;2023-02-21T05:03:47;49.47;;;16.33;;
72639;SDS011;60683;51.730;8.762;2023-02-21T05:06:16;48.78;;;16.42;;
72639;SDS011;60683;51.730;8.762;2023-02-21T05:08:44;35.70;;;14.93;;
72639;SDS011;60683;51.730;8.762;2023-02-21T05:11:12;46.10;;;15.38;;
72639;SDS011;60683;51.730;8.762;2023-02-21T05:13:42;48.90;;;16.83;;
72639;SDS011;60683;51.730;8.762;2023-02-21T05:16:09;50.42;;;15.75;;
72639;SDS011;60683;51.730;8.762;2023-02-21T05:18:37;46.05;;;18.70;;
72639;SDS011;60683;51.730;8.762;2023-02-21T05:21:09;37.95;;;14.05;;
72639;SDS011;60683;51.730;8.762;2023-02-21T05:23:37;45.10;;;18.75;;
72639;SDS011;60683;51.730;8.762;2023-02-21T05:26:06;35.78;;;13.70;;
72639;SDS011;60683;51.730;8.762;2023-02-21T05:28:36;38.13;;;13.38;;
72639;SDS011;60683;51.730;8.762;2023-02-21T05:31:04;48.78;;;18.05;;
72639;SDS011;60683;51.730;8.762;2023-02-21T05:33:32;47.78;;;14.77;;
72639;SDS011;60683;51.730;8.762;2023-02-21T05:36:00;48.78;;;17.20;;
72639;SDS011;60683;51.730;8.762;2023-02-21T05:38:29;56.30;;;17.85;;
72639;SDS011;60683;51.730;8.762;2023-02-21T05:40:56;58.13;;;18.17;;
72639;SDS011;60683;51.730;8.762;2023-02-21T05:43:24;42.85;;;15.30;;
72639;SDS011;60683;51.730;8.762;2023-02-21T05:45:52;49.33;;;16.33;;
72639;SDS011;60683;51.730;8.762;2023-02-21T05:48:21;61.28;;;19.70;;
72639;SDS011;60683;51.730;8.762;2023-02-21T05:50:49;68.90;;;19.00;;
72639;SDS011;60683;51.730;8.762;2023-02-21T05:53:17;42.85;;;12.55;;
72639;SDS011;60683;51.730;8.762;2023-02-21T05:55:46;42.03;;;15.25;;
72639;SDS011;60683;51.730;8.762;2023-02-21T05:58:14;55.78;;;17.75;;
72639;SDS011;60683;51.730;8.762;2023-02-21T06:00:41;57.83;;;18.05;;
72639;SDS011;60683;51.730;8.762;2023-02-21T06:03:09;50.35;;;14.48;;
72639;SDS011;60683;51.730;8.762;2023-02-21T06:05:37;48.65;;;15.88;;
72639;SDS011;60683;51.730;8.762;2023-02-21T06:08:05;55.17;;;18.23;;
72639;SDS011;60683;51.730;8.762;2023-02-21T06:10:32;55.95;;;15.55;;
72639;SDS011;60683;51.730;8.762;2023-02-21T06:13:01;51.22;;;18.13;;
72639;SDS011;60683;51.730;8.762;2023-02-21T06:15:29;61.17;;;18.40;;
72639;SDS011;60683;51.730;8.762;2023-02-21T06:17:57;54.30;;;18.27;;
72639;SDS011;60683;51.730;8.762;2023-02-21T06:20:25;66.78;;;19.95;;
72639;SDS011;60683;51.730;8.762;2023-02-21T06:22:53;48.65;;;15.55;;
72639;SDS011;60683;51.730;8.762;2023-02-21T06:25:20;63.25;;;18.23;;
72639;SDS011;60683;51.730;8.762;2023-02-21T06:27:49;47.50;;;17.27;;
72639;SDS011;60683;51.730;8.762;2023-02-21T06:30:18;45.35;;;16.58;;
72639;SDS011;60683;51.730;8.762;2023-02-21T06:32:46;57.88;;;18.33;;
72639;SDS011;60683;51.730;8.762;2023-02-21T06:35:13;54.55;;;17.10;;
72639;SDS011;60683;51.730;8.762;2023-02-21T06:37:41;74.22;;;20.92;;
72639;SDS011;60683;51.730;8.762;2023-02-21T06:40:09;62.92;;;17.60;;
72639;SDS011;60683;51.730;8.762;2023-02-21T06:42:37;41.47;;;14.75;;
72639;SDS011;60683;51.730;8.762;2023-02-21T06:45:04;40.30;;;15.40;;
72639;SDS011;60683;51.730;8.762;2023-02-21T06:47:34;32.33;;;14.00;;
72639;SDS011;60683;51.730;8.762;2023-02-21T06:50:02;43.65;;;15.32;;
72639;SDS011;60683;51.730;8.762;2023-02-21T06:52:31;53.17;;;16.40;;
72639;SDS011;60683;51.730;8.762;2023-02-21T06:54:58;70.20;;;19.38;;
72639;SDS011;60683;51.730;8.762;2023-02-21T06:57:26;57.83;;;18.73;;
72639;SDS011;60683;51.730;8.762;2023-02-21T06:59:54;43.90;;;14.38;;
72639;SDS011;60683;51.730;8.762;2023-02-21T07:02:21;53.80;;;17.38;;
72639;SDS011;60683;51.730;8.762;2023-02-21T07:04:51;49.05;;;15.93;;
72639;SDS011;60683;51.730;8.762;2023-02-21T07:07:19;40.95;;;13.07;;
72639;SDS011;60683;51.730;8.762;2023-02-21T07:09:46;48.22;;;16.00;;
72639;SDS011;60683;51.730;8.762;2023-02-21T07:12:14;47.20;;;15.55;;
72639;SDS011;60683;51.730;8.762;2023-02-21T07:14:42;36.88;;;12.77;;
72639;SDS011;60683;51.730;8.762;2023-02-21T07:17:10;56.55;;;16.92;;
72639;SDS011;60683;51.730;8.762;2023-02-21T07:19:37;54.38;;;17.05;;
72639;SDS011;60683;51.730;8.762;2023-02-21T07:22:07;55.72;;;17.90;;
72639;SDS011;60683;51.730;8.762;2023-02-21T07:24:34;43.78;;;14.70;;
72639;SDS011;60683;51.730;8.762;2023-02-21T07:27:02;41.70;;;15.35;;
72639;SDS011;60683;51.730;8.762;2023-02-21T07:29:30;36.42;;;13.55;;
72639;SDS011;60683;51.730;8.762;2023-02-21T07:31:58;49.17;;;17.00;;
72639;SDS011;60683;51.730;8.762;2023-02-21T07:34:25;43.40;;;14.38;;
72639;SDS011;60683;51.730;8.762;2023-02-21T07:36:53;45.25;;;14.45;;
72639;SDS011;60683;51.730;8.762;2023-02-21T07:39:22;36.42;;;12.95;;
72639;SDS011;60683;51.730;8.762;2023-02-21T07:41:51;50.05;;;16.73;;
72639;SDS011;60683;51.730;8.762;2023-02-21T07:44:19;39.85;;;12.38;;
72639;SDS011;60683;51.730;8.762;2023-02-21T07:46:47;44.08;;;14.43;;
72639;SDS011;60683;51.730;8.762;2023-02-21T07:49:14;37.08;;;14.70;;
72639;SDS011;60683;51.730;8.762;2023-02-21T07:51:42;41.38;;;16.60;;
72639;SDS011;60683;51.730;8.762;2023-02-21T07:54:10;41.25;;;15.07;;
72639;SDS011;60683;51.730;8.762;2023-02-21T07:56:42;30.05;;;11.98;;
72639;SDS011;60683;51.730;8.762;2023-02-21T07:59:10;44.85;;;16.33;;
72639;SDS011;60683;51.730;8.762;2023-02-21T08:01:38;50.45;;;15.65;;
72639;SDS011;60683;51.730;8.762;2023-02-21T08:04:06;34.28;;;13.40;;
72639;SDS011;60683;51.730;8.762;2023-02-21T08:06:34;30.17;;;11.90;;
72639;SDS011;60683;51.730;8.762;2023-02-21T08:09:02;42.55;;;14.35;;
72639;SDS011;60683;51.730;8.762;2023-02-21T08:11:30;42.40;;;14.38;;
72639;SDS011;60683;51.730;8.762;2023-02-21T08:14:00;34.47;;;13.70;;
72639;SDS011;60683;51.730;8.762;2023-02-21T08:16:27;31.17;;;12.25;;
72639;SDS011;60683;51.730;8.762;2023-02-21T08:18:55;42.75;;;15.55;;
72639;SDS011;60683;51.730;8.762;2023-02-21T08:21:26;29.83;;;11.60;;
72639;SDS011;60683;51.730;8.762;2023-02-21T08:23:54;39.90;;;15.15;;
72639;SDS011;60683;51.730;8.762;2023-02-21T08:26:22;40.63;;;14.88;;
72639;SDS011;60683;51.730;8.762;2023-02-21T08:28:49;39.33;;;12.98;;
72639;SDS011;60683;51.730;8.762;2023-02-21T08:31:19;37.22;;;14.30;;
72639;SDS011;60683;51.730;8.762;2023-02-21T08:33:47;36.55;;;13.43;;
72639;SDS011;60683;51.730;8.762;2023-02-21T08:36:15;32.45;;;11.52;;
72639;SDS011;60683;51.730;8.762;2023-02-21T08:38:43;29.63;;;12.73;;
72639;SDS011;60683;51.730;8.762;2023-02-21T08:41:10;46.90;;;15.55;;
72639;SDS011;60683;51.730;8.762;2023-02-21T08:43:38;38.15;;;12.90;;
72639;SDS011;60683;51.730;8.762;2023-02-21T08:46:05;32.65;;;13.88;;
72639;SDS011;60683;51.730;8.762;2023-02-21T08:48:35;21.13;;;10.25;;
72639;SDS011;60683;51.730;8.762;2023-02-21T08:51:03;25.38;;;11.00;;
72639;SDS011;60683;51.730;8.762;2023-02-21T08:53:30;39.97;;;13.80;;
72639;SDS011;60683;51.730;8.762;2023-02-21T08:55:58;42.05;;;14.32;;
72639;SDS011;60683;51.730;8.762;2023-02-21T08:58:26;47.22;;;16.15;;
72639;SDS011;60683;51.730;8.762;2023-02-21T09:00:53;32.53;;;11.95;;
72639;SDS011;60683;51.730;8.762;2023-02-21T09:03:21;29.63;;;12.32;;
72639;SDS011;60683;51.730;8.762;2023-02-21T09:05:50;39.10;;;13.23;;
72639;SDS011;60683;51.730;8.762;2023-02-21T09:08:17;38.65;;;14.43;;
72639;SDS011;60683;51.730;8.762;2023-02-21T09:10:47;31.75;;;12.27;;
72639;SDS011;60683;51.730;8.762;2023-02-21T09:13:14;43.85;;;16.10;;
72639;SDS011;60683;51.730;8.762;2023-02-21T09:15:42;36.88;;;13.23;;
72639;SDS011;60683;51.730;8.762;2023-02-21T09:18:09;48.15;;;16.85;;
72639;SDS011;60683;51.730;8.762;2023-02-21T09:20:38;47.20;;;16.55;;
72639;SDS011;60683;51.730;8.762;2023-02-21T09:23:08;46.28;;;16.67;;
72639;SDS011;60683;51.730;8.762;2023-02-21T09:25:36;46.58;;;15.93;;
72639;SDS011;60683;51.730;8.762;2023-02-21T09:28:03;48.42;;;16.95;;
72639;SDS011;60683;51.730;8.762;2023-02-21T09:30:31;49.22;;;16.25;;
72639;SDS011;60683;51.730;8.762;2023-02-21T09:32:59;41.85;;;15.65;;
72639;SDS011;60683;51.730;8.762;2023-02-21T09:35:27;48.78;;;16.77;;
72639;SDS011;60683;51.730;8.762;2023-02-21T09:37:55;44.88;;;16.95;;
72639;SDS011;60683;51.730;8.762;2023-02-21T09:40:29;53.72;;;17.38;;
72639;SDS011;60683;51.730;8.762;2023-02-21T09:43:00;46.63;;;15.18;;
72639;SDS011;60683;51.730;8.762;2023-02-21T09:45:29;43.53;;;15.50;;
72639;SDS011;60683;51.730;8.762;2023-02-21T09:47:58;39.92;;;15.32;;
72639;SDS011;60683;51.730;8.762;2023-02-21T09:50:28;50.53;;;16.48;;
72639;SDS011;60683;51.730;8.762;2023-02-21T09:52:59;45.70;;;16.33;;
72639;SDS011;60683;51.730;8.762;2023-02-21T09:55:29;47.88;;;16.75;;
72639;SDS011;60683;51.730;8.762;2023-02-21T09:58:00;54.95;;;16.88;;
72639;SDS011;60683;51.730;8.762;2023-02-21T10:00:32;49.85;;;18.98;;
72639;SDS011;60683;51.730;8.762;2023-02-21T10:03:04;44.90;;;17.17;;
72639;SDS011;60683;51.730;8.762;2023-02-21T10:05:41;54.50;;;16.35;;
72639;SDS011;60683;51.730;8.762;2023-02-21T10:08:13;43.50;;;14.90;;
72639;SDS011;60683;51.730;8.762;2023-02-21T10:10:47;47.63;;;16.35;;
72639;SDS011;60683;51.730;8.762;2023-02-21T10:13:24;54.63;;;17.98;;
72639;SDS011;60683;51.730;8.762;2023-02-21T10:15:59;38.97;;;13.60;;
72639;SDS011;60683;51.730;8.762;2023-02-21T10:18:31;44.22;;;14.18;;
72639;SDS011;60683;51.730;8.762;2023-02-21T10:21:02;50.30;;;16.90;;
72639;SDS011;60683;51.730;8.762;2023-02-21T10:23:39;55.53;;;16.77;;
72639;SDS011;60683;51.730;8.762;2023-02-21T10:26:11;52.88;;;18.45;;
72639;SDS011;60683;51.730;8.762;2023-02-21T10:28:40;48.75;;;16.83;;
72639;SDS011;60683;51.730;8.762;2023-02-21T10:31:10;49.92;;;15.60;;
72639;SDS011;60683;51.730;8.762;2023-02-21T10:33:39;60.25;;;19.75;;
72639;SDS011;60683;51.730;8.762;2023-02-21T10:36:09;49.17;;;16.50;;
72639;SDS011;60683;51.730;8.762;2023-02-21T10:38:38;46.72;;;16.70;;
72639;SDS011;60683;51.730;8.762;2023-02-21T10:41:10;61.90;;;17.83;;
72639;SDS011;60683;51.730;8.762;2023-02-21T10:43:38;41.85;;;12.55;;
72639;SDS011;60683;51.730;8.762;2023-02-21T10:46:10;44.58;;;16.70;;
72639;SDS011;60683;51.730;8.762;2023-02-21T10:48:41;39.50;;;14.38;;
72639;SDS011;60683;51.730;8.762;2023-02-21T10:51:09;45.50;;;16.88;;
72639;SDS011;60683;51.730;8.762;2023-02-21T10:53:39;36.70;;;12.18;;
72639;SDS011;60683;51.730;8.762;2023-02-21T10:56:08;28.15;;;9.98;;
72639;SDS011;60683;51.730;8.762;2023-02-21T10:58:55;47.92;;;17.15;;
72639;SDS011;60683;51.730;8.762;2023-02-21T11:01:32;53.13;;;18.23;;
72639;SDS011;60683;51.730;8.762;2023-02-21T11:04:02;52.45;;;16.85;;
72639;SDS011;60683;51.730;8.762;2023-02-21T11:06:33;46.35;;;17.95;;
72639;SDS011;60683;51.730;8.762;2023-02-21T11:09:02;45.45;;;16.77;;
72639;SDS011;60683;51.730;8.762;2023-02-21T11:11:59;44.63;;;13.63;;
72639;SDS011;60683;51.730;8.762;2023-02-21T11:14:29;38.00;;;14.05;;
72639;SDS011;60683;51.730;8.762;2023-02-21T11:17:04;52.15;;;16.10;;
72639;SDS011;60683;51.730;8.762;2023-02-21T11:22:18;52.35;;;15.73;;
72639;SDS011;60683;51.730;8.762;2023-02-21T11:24:53;45.97;;;15.93;;
72639;SDS011;60683;51.730;8.762;2023-02-21T11:27:26;34.08;;;12.73;;
72639;SDS011;60683;51.730;8.762;2023-02-21T11:29:54;51.80;;;18.00;;
72639;SDS011;60683;51.730;8.762;2023-02-21T11:32:26;47.90;;;16.35;;
72639;SDS011;60683;51.730;8.762;2023-02-21T11:34:59;44.20;;;15.35;;
72639;SDS011;60683;51.730;8.762;2023-02-21T11:37:28;56.65;;;18.08;;
72639;SDS011;60683;51.730;8.762;2023-02-21T11:39:57;56.25;;;17.52;;
72639;SDS011;60683;51.730;8.762;2023-02-21T11:42:29;39.72;;;13.95;;
72639;SDS011;60683;51.730;8.762;2023-02-21T11:45:05;48.38;;;16.35;;
72639;SDS011;60683;51.730;8.762;2023-02-21T11:47:38;47.83;;;15.88;;
72639;SDS011;60683;51.730;8.762;2023-02-21T11:50:12;42.78;;;14.07;;
72639;SDS011;60683;51.730;8.762;2023-02-21T11:52:45;45.10;;;16.65;;
72639;SDS011;60683;51.730;8.762;2023-02-21T11:55:18;49.55;;;17.98;;
72639;SDS011;60683;51.730;8.762;2023-02-21T11:57:50;25.67;;;9.52;;
72639;SDS011;60683;51.730;8.762;2023-02-21T12:00:29;40.35;;;15.75;;
72639;SDS011;60683;51.730;8.762;2023-02-21T12:03:10;33.05;;;11.50;;
72639;SDS011;60683;51.730;8.762;2023-02-21T12:05:49;38.15;;;15.00;;
72639;SDS011;60683;51.730;8.762;2023-02-21T12:08:26;26.42;;;9.35;;
72639;SDS011;60683;51.730;8.762;2023-02-21T12:11:07;37.63;;;14.05;;
72639;SDS011;60683;51.730;8.762;2023-02-21T12:13:42;42.42;;;15.70;;
72639;SDS011;60683;51.730;8.762;2023-02-21T12:16:18;19.50;;;8.25;;
72639;SDS011;60683;51.730;8.762;2023-02-21T12:18:55;37.45;;;13.80;;
72639;SDS011;60683;51.730;8.762;2023-02-21T12:21:37;36.17;;;13.45;;
72639;SDS011;60683;51.730;8.762;2023-02-21T12:24:20;33.78;;;13.35;;
72639;SDS011;60683;51.730;8.762;2023-02-21T12:26:53;37.20;;;13.38;;
72639;SDS011;60683;51.730;8.762;2023-02-21T12:29:28;36.17;;;13.82;;
72639;SDS011;60683;51.730;8.762;2023-02-21T12:32:09;26.00;;;9.75;;
72639;SDS011;60683;51.730;8.762;2023-02-21T12:34:52;29.17;;;13.27;;
72639;SDS011;60683;51.730;8.762;2023-02-21T12:37:31;39.38;;;15.07;;
72639;SDS011;60683;51.730;8.762;2023-02-21T12:40:12;23.17;;;9.90;;
72639;SDS011;60683;51.730;8.762;2023-02-21T12:45:51;33.35;;;11.82;;
72639;SDS011;60683;51.730;8.762;2023-02-21T12:48:24;30.58;;;13.73;;
72639;SDS011;60683;51.730;8.762;2023-02-21T12:50:57;37.72;;;14.55;;
72639;SDS011;60683;51.730;8.762;2023-02-21T12:53:30;39.42;;;15.00;;
72639;SDS011;60683;51.730;8.762;2023-02-21T12:56:02;36.92;;;14.65;;
72639;SDS011;60683;51.730;8.762;2023-02-21T12:58:33;46.85;;;15.38;;
72639;SDS011;60683;51.730;8.762;2023-02-21T13:01:06;36.53;;;13.07;;
72639;SDS011;60683;51.730;8.762;2023-02-21T13:03:39;40.60;;;15.05;;
72639;SDS011;60683;51.730;8.762;2023-02-21T13:06:14;38.15;;;13.77;;
72639;SDS011;60683;51.730;8.762;2023-02-21T13:08:48;36.08;;;13.30;;
72639;SDS011;60683;51.730;8.762;2023-02-21T13:11:21;34.35;;;13.45;;
72639;SDS011;60683;51.730;8.762;2023-02-21T13:13:51;36.70;;;13.65;;
72639;SDS011;60683;51.730;8.762;2023-02-21T13:16:21;33.38;;;12.85;;
72639;SDS011;60683;51.730;8.762;2023-02-21T13:18:50;37.38;;;14.02;;
72639;SDS011;60683;51.730;8.762;2023-02-21T13:21:28;37.08;;;15.00;;
72639;SDS011;60683;51.730;8.762;2023-02-21T13:24:04;36.10;;;13.45;;
72639;SDS011;60683;51.730;8.762;2023-02-21T13:27:25;28.45;;;12.10;;
72639;SDS011;60683;51.730;8.762;2023-02-21T13:32:30;27.98;;;11.80;;
72639;SDS011;60683;51.730;8.762;2023-02-21T13:35:04;32.17;;;12.60;;
72639;SDS011;60683;51.730;8.762;2023-02-21T13:37:34;36.38;;;13.63;;
72639;SDS011;60683;51.730;8.762;2023-02-21T13:40:06;33.88;;;11.60;;
72639;SDS011;60683;51.730;8.762;2023-02-21T13:42:48;33.58;;;11.70;;
72639;SDS011;60683;51.730;8.762;2023-02-21T13:45:31;33.45;;;12.43;;
72639;SDS011;60683;51.730;8.762;2023-02-21T13:50:55;33.13;;;12.00;;
72639;SDS011;60683;51.730;8.762;2023-02-21T13:53:24;29.73;;;9.65;;
72639;SDS011;60683;51.730;8.762;2023-02-21T13:56:14;32.60;;;12.70;;
72639;SDS011;60683;51.730;8.762;2023-02-21T13:58:43;30.95;;;11.70;;
72639;SDS011;60683;51.730;8.762;2023-02-21T14:01:16;33.05;;;13.13;;
72639;SDS011;60683;51.730;8.762;2023-02-21T14:10:22;25.38;;;10.07;;
72639;SDS011;60683;51.730;8.762;2023-02-21T14:12:54;27.10;;;10.65;;
72639;SDS011;60683;51.730;8.762;2023-02-21T14:15:23;27.65;;;11.10;;
72639;SDS011;60683;51.730;8.762;2023-02-21T14:18:03;32.83;;;11.98;;
72639;SDS011;60683;51.730;8.762;2023-02-21T14:20:33;33.33;;;13.13;;
72639;SDS011;60683;51.730;8.762;2023-02-21T14:23:02;34.65;;;11.40;;
72639;SDS011;60683;51.730;8.762;2023-02-21T14:25:31;33.58;;;12.88;;
72639;SDS011;60683;51.730;8.762;2023-02-21T14:27:59;32.17;;;11.40;;
72639;SDS011;60683;51.730;8.762;2023-02-21T14:30:29;32.05;;;12.60;;
72639;SDS011;60683;51.730;8.762;2023-02-21T14:32:59;28.65;;;12.38;;
72639;SDS011;60683;51.730;8.762;2023-02-21T14:35:38;34.75;;;12.13;;
72639;SDS011;60683;51.730;8.762;2023-02-21T14:38:14;33.85;;;12.75;;
72639;SDS011;60683;51.730;8.762;2023-02-21T14:40:45;37.00;;;13.43;;
72639;SDS011;60683;51.730;8.762;2023-02-21T14:43:23;31.15;;;12.05;;
72639;SDS011;60683;51.730;8.762;2023-02-21T14:46:01;32.65;;;12.38;;
72639;SDS011;60683;51.730;8.762;2023-02-21T14:48:42;23.83;;;10.18;;
72639;SDS011;60683;51.730;8.762;2023-02-21T14:51:26;27.77;;;11.15;;
72639;SDS011;60683;51.730;8.762;2023-02-21T14:57:25;32.80;;;12.38;;
72639;SDS011;60683;51.730;8.762;2023-02-21T15:00:06;31.55;;;11.63;;
72639;SDS011;60683;51.730;8.762;2023-02-21T15:02:46;33.25;;;12.23;;
72639;SDS011;60683;51.730;8.762;2023-02-21T15:05:19;29.98;;;11.32;;
72639;SDS011;60683;51.730;8.762;2023-02-21T15:07:54;28.90;;;11.95;;
72639;SDS011;60683;51.730;8.762;2023-02-21T15:10:25;31.42;;;11.95;;
72639;SDS011;60683;51.730;8.762;2023-02-21T15:12:54;36.25;;;13.55;;
72639;SDS011;60683;51.730;8.762;2023-02-21T15:15:23;36.42;;;12.60;;
72639;SDS011;60683;51.730;8.762;2023-02-21T15:17:57;34.65;;;12.75;;
72639;SDS011;60683;51.730;8.762;2023-02-21T15:20:34;36.47;;;12.48;;
72639;SDS011;60683;51.730;8.762;2023-02-21T15:23:09;33.45;;;11.70;;
72639;SDS011;60683;51.730;8.762;2023-02-21T15:25:39;32.42;;;12.20;;
72639;SDS011;60683;51.730;8.762;2023-02-21T15:28:19;30.27;;;13.25;;
72639;SDS011;60683;51.730;8.762;2023-02-21T15:30:56;35.95;;;13.35;;
72639;SDS011;60683;51.730;8.762;2023-02-21T15:33:26;34.80;;;11.82;;
72639;SDS011;60683;51.730;8.762;2023-02-21T15:35:55;33.45;;;12.65;;